Time;durP1;ratioP1;P1;durP2;ratioP2;P2;SDS_P1;SDS_P2;PMS_P1;PMS_P2;Temp;Humidity;BMP_temperature;BMP_pressure;BME280_temperature;BME280_humidity;BME280_pressure;Samples;Min_cycle;Max_cycle;Signal;HPM_P1;HPM_P2
2020/12/11 00:02:07;;;;;;;;;;;;;;;17.58;65.19;100166.53;5068377;28;1847;-46
2020/12/11 00:04:32;;;;;;;;;;;;;;;17.59;65.07;100165.56;5056483;28;1947;-46
2020/12/11 00:07:01;;;;;;;;;;;;;;;17.57;65.19;100156.84;5068491;28;1560;-46
2020/12/11 00:09:27;;;;;;;;;;;;;;;17.57;64.17;100151.50;5062664;28;1879;-46
2020/12/11 00:11:52;;;;;;;;;;;;;;;17.55;64.55;100156.13;5060357;28;1695;-46
2020/12/11 00:14:17;;;;;;;;;;;;;;;17.52;65.37;100153.75;5069914;28;2075;-46
2020/12/11 00:16:43;;;;;;;;;;;;;;;17.49;64.95;100158.38;5058771;28;1654;-46
2020/12/11 00:19:08;;;;;;;;;;;;;;;17.47;64.33;100155.00;5082126;28;1401;-46
2020/12/11 00:21:43;;;;;;;;;;;;;;;17.48;65.05;100142.47;5081910;28;1364;-46
2020/12/11 00:24:09;;;;;;;;;;;;;;;17.44;64.59;100160.63;5081421;28;1890;-46
2020/12/11 00:26:35;;;;;;;;;;;;;;;17.44;63.89;100168.66;5078741;28;1690;-46
2020/12/11 00:29:00;;;;;;;;;;;;;;;17.44;64.20;100152.59;5073205;28;1525;-46
2020/12/11 00:31:26;;;;;;;;;;;;;;;17.43;65.05;100160.78;5080707;28;1539;-46
2020/12/11 00:33:54;;;;;;;;;;;;;;;17.39;64.76;100165.56;5080885;28;1509;-46
2020/12/11 00:36:20;;;;;;;;;;;;;;;17.42;64.35;100167.94;5079006;28;1470;-46
2020/12/11 00:38:45;;;;;;;;;;;;;;;17.39;64.93;100160.22;5084569;28;1446;-46
2020/12/11 00:41:11;;;;;;;;;;;;;;;17.44;64.81;100165.97;5086257;28;1484;-46
2020/12/11 00:43:36;;;;;;;;;;;;;;;17.40;64.77;100164.56;5085515;28;1956;-46
2020/12/11 00:46:02;;;;;;;;;;;;;;;17.39;64.36;100170.91;5086734;28;1391;-46
2020/12/11 00:48:27;;;;;;;;;;;;;;;17.40;64.60;100167.22;5083158;28;1926;-46
2020/12/11 00:50:52;;;;;;;;;;;;;;;17.39;64.16;100162.03;5085744;28;1525;-46
2020/12/11 00:53:17;;;;;;;;;;;;;;;17.40;64.22;100183.28;5083227;28;1436;-45
2020/12/11 00:55:43;;;;;;;;;;;;;;;17.34;64.98;100181.16;5086431;28;1357;-46
2020/12/11 00:58:08;;;;;;;;;;;;;;;17.35;63.31;100182.00;5084259;28;1496;-46
2020/12/11 01:00:33;;;;;;;;;;;;;;;17.35;63.72;100190.88;5081056;28;1666;-46
2020/12/11 01:02:59;;;;;;;;;;;;;;;17.37;63.63;100193.38;5083697;28;1582;-46
2020/12/11 01:05:24;;;;;;;;;;;;;;;17.35;64.06;100173.97;5082363;28;1977;-46
2020/12/11 01:07:49;;;;;;;;;;;;;;;17.34;63.95;100181.16;5085836;28;1440;-46
2020/12/11 01:10:14;;;;;;;;;;;;;;;17.31;64.23;100168.09;5084867;28;1384;-46
2020/12/11 01:12:40;;;;;;;;;;;;;;;17.30;64.45;100169.06;5080727;28;1340;-46
2020/12/11 01:15:05;;;;;;;;;;;;;;;17.29;63.80;100175.41;5084389;28;1509;-46
2020/12/11 01:17:30;;;;;;;;;;;;;;;17.32;63.62;100184.97;5086474;28;1440;-46
2020/12/11 01:19:55;;;;;;;;;;;;;;;17.27;63.23;100177.38;5084204;28;1476;-46
2020/12/11 01:22:21;;;;;;;;;;;;;;;17.26;63.75;100170.31;5085049;28;1726;-46
2020/12/11 01:24:46;;;;;;;;;;;;;;;17.26;64.42;100167.66;5081504;28;1941;-46
2020/12/11 01:27:11;;;;;;;;;;;;;;;17.27;63.39;100174.69;5085031;28;1469;-46
2020/12/11 01:29:36;;;;;;;;;;;;;;;17.24;63.69;100181.13;5084853;28;1479;-45
2020/12/11 01:32:02;;;;;;;;;;;;;;;17.20;63.62;100171.72;5083111;28;1405;-46
2020/12/11 01:34:27;;;;;;;;;;;;;;;17.21;63.28;100164.53;5081853;28;1868;-46
2020/12/11 01:36:52;;;;;;;;;;;;;;;17.24;64.38;100161.59;5085866;28;1309;-46
2020/12/11 01:39:17;;;;;;;;;;;;;;;17.18;63.41;100152.31;5083898;28;2000;-46
2020/12/11 01:41:43;;;;;;;;;;;;;;;17.16;63.82;100138.25;5083686;28;1413;-46
2020/12/11 01:44:09;;;;;;;;;;;;;;;17.16;63.43;100148.09;5085055;28;1964;-46
2020/12/11 01:46:38;;;;;;;;;;;;;;;17.16;63.56;100148.09;5081681;28;2058;-46
2020/12/11 01:49:04;;;;;;;;;;;;;;;17.17;63.40;100155.09;5080968;28;1413;-46
2020/12/11 01:51:29;;;;;;;;;;;;;;;17.16;63.95;100148.94;5083247;28;1544;-46
2020/12/11 01:53:55;;;;;;;;;;;;;;;17.15;63.60;100152.59;5083820;28;1396;-47
2020/12/11 01:56:23;;;;;;;;;;;;;;;17.18;62.99;100146.97;5085280;28;1463;-46
2020/12/11 01:58:52;;;;;;;;;;;;;;;17.18;64.05;100143.44;5085212;28;1385;-46
2020/12/11 02:01:17;;;;;;;;;;;;;;;17.16;63.05;100166.78;5083842;28;1469;-46
2020/12/11 02:03:43;;;;;;;;;;;;;;;17.19;64.05;100143.31;5085095;28;1993;-46
2020/12/11 02:06:09;;;;;;;;;;;;;;;17.18;63.64;100141.63;5085219;28;1508;-46
2020/12/11 02:08:34;;;;;;;;;;;;;;;17.19;63.31;100150.47;5080931;28;1735;-45
2020/12/11 02:10:59;;;;;;;;;;;;;;;17.17;63.28;100129.25;5083013;28;1413;-46
2020/12/11 02:13:24;;;;;;;;;;;;;;;17.18;63.75;100120.25;5082624;28;1448;-46
2020/12/11 02:15:50;;;;;;;;;;;;;;;17.20;63.91;100126.28;5084110;28;1414;-46
2020/12/11 02:18:15;;;;;;;;;;;;;;;17.20;62.77;100112.09;5082654;28;1380;-46
2020/12/11 02:20:40;;;;;;;;;;;;;;;17.18;62.83;100114.06;5079366;28;1592;-46
2020/12/11 02:23:06;;;;;;;;;;;;;;;17.19;63.66;100099.72;5085053;28;1416;-46
2020/12/11 02:25:31;;;;;;;;;;;;;;;17.13;63.04;100094.94;5080415;28;1890;-46
2020/12/11 02:27:56;;;;;;;;;;;;;;;17.18;63.58;100100.72;5076556;28;1440;-46
2020/12/11 02:30:21;;;;;;;;;;;;;;;17.27;65.23;100113.25;5064301;28;1777;-46
2020/12/11 02:32:46;;;;;;;;;;;;;;;17.27;64.48;100129.28;5063586;28;1766;-46
2020/12/11 02:35:12;;;;;;;;;;;;;;;17.25;63.63;100117.88;5067355;28;1754;-46
2020/12/11 02:37:37;;;;;;;;;;;;;;;17.22;64.46;100123.50;5066070;28;1886;-46
2020/12/11 02:40:04;;;;;;;;;;;;;;;17.22;64.41;100129.66;5068722;28;1767;-46
2020/12/11 02:42:29;;;;;;;;;;;;;;;17.23;64.38;100117.16;5074779;28;869;-46
2020/12/11 02:44:54;;;;;;;;;;;;;;;17.17;65.67;100117.69;5074852;28;1890;-46
2020/12/11 02:47:19;;;;;;;;;;;;;;;17.18;64.63;100114.06;5070111;28;1873;-46
2020/12/11 02:49:45;;;;;;;;;;;;;;;17.20;64.41;100109.44;5054740;28;815;-46
2020/12/11 02:52:10;;;;;;;;;;;;;;;17.16;64.53;100106.19;5070225;28;1723;-46
2020/12/11 02:54:35;;;;;;;;;;;;;;;17.14;63.80;100120.66;5070931;28;1743;-47
2020/12/11 02:57:01;;;;;;;;;;;;;;;17.14;64.87;100126.84;5060089;28;1722;-46
2020/12/11 02:59:26;;;;;;;;;;;;;;;17.14;64.95;100134.88;5065478;28;1806;-46
2020/12/11 03:01:51;;;;;;;;;;;;;;;17.14;64.51;100134.03;5067406;28;1738;-46
2020/12/11 03:04:16;;;;;;;;;;;;;;;17.09;63.93;100132.63;5058076;28;1905;-46
2020/12/11 03:06:42;;;;;;;;;;;;;;;17.12;64.46;100130.66;5071131;28;1823;-46
2020/12/11 03:09:07;;;;;;;;;;;;;;;17.06;63.42;100126.72;5060753;28;1647;-46
2020/12/11 03:11:32;;;;;;;;;;;;;;;17.07;64.59;100134.59;5064254;28;1723;-46
2020/12/11 03:13:57;;;;;;;;;;;;;;;17.06;63.84;100126.72;5068207;28;1683;-46
2020/12/11 03:16:23;;;;;;;;;;;;;;;17.08;63.50;100130.09;5057780;28;1879;-46
2020/12/11 03:18:48;;;;;;;;;;;;;;;17.07;63.62;100131.91;5070468;28;1726;-46
2020/12/11 03:21:14;;;;;;;;;;;;;;;17.11;64.22;100140.50;5061685;28;1679;-45
2020/12/11 03:23:39;;;;;;;;;;;;;;;17.12;64.11;100152.88;5062712;28;1996;-46
2020/12/11 03:26:04;;;;;;;;;;;;;;;17.12;62.76;100176.91;5068532;28;1758;-46
2020/12/11 03:28:30;;;;;;;;;;;;;;;17.10;62.63;100169.03;5057080;28;1707;-46
2020/12/11 03:30:56;;;;;;;;;;;;;;;17.08;63.44;100179.00;5068306;28;1726;-46
2020/12/11 03:33:21;;;;;;;;;;;;;;;17.08;62.74;100192.34;5062390;28;1722;-46
2020/12/11 03:35:46;;;;;;;;;;;;;;;17.13;63.38;100180.41;5061539;28;1774;-46
2020/12/11 03:38:11;;;;;;;;;;;;;;;17.06;62.35;100180.13;5069615;28;1724;-46
2020/12/11 03:40:36;;;;;;;;;;;;;;;17.06;62.71;100170.28;5056372;28;1699;-46
2020/12/11 03:43:02;;;;;;;;;;;;;;;17.07;63.68;100177.34;5067544;28;1746;-46
2020/12/11 03:45:27;;;;;;;;;;;;;;;17.07;63.62;100182.66;5062838;28;1893;-46
2020/12/11 03:47:52;;;;;;;;;;;;;;;17.02;62.60;100192.91;5061017;28;1738;-46
2020/12/11 03:50:17;;;;;;;;;;;;;;;17.01;62.39;100183.22;5069705;28;1739;-46
2020/12/11 03:52:43;;;;;;;;;;;;;;;17.01;62.52;100183.22;5057084;28;1703;-46
2020/12/11 03:55:08;;;;;;;;;;;;;;;16.98;62.41;100191.50;5066623;28;1723;-47
2020/12/11 03:57:33;;;;;;;;;;;;;;;17.00;62.80;100186.84;5053823;28;1718;-46
2020/12/11 03:59:59;;;;;;;;;;;;;;;16.99;62.37;100185.19;5053689;28;1695;-46
2020/12/11 04:02:24;;;;;;;;;;;;;;;17.01;63.44;100191.22;5059568;22;3698;-60
2020/12/11 04:04:49;;;;;;;;;;;;;;;16.99;62.62;100190.53;5035891;28;1930;-60
2020/12/11 04:07:14;;;;;;;;;;;;;;;16.97;62.29;100195.16;5042440;28;1668;-59
2020/12/11 04:09:40;;;;;;;;;;;;;;;16.94;62.95;100187.41;5043627;28;1656;-60
2020/12/11 04:12:05;;;;;;;;;;;;;;;16.92;64.20;100193.88;5048924;28;1652;-58
2020/12/11 04:14:31;;;;;;;;;;;;;;;16.88;65.09;100203.97;5038459;28;1676;-60
2020/12/11 04:16:56;;;;;;;;;;;;;;;16.80;64.64;100187.75;5049012;28;1716;-60
2020/12/11 04:19:22;;;;;;;;;;;;;;;16.79;65.40;100191.41;5043111;28;1711;-58
2020/12/11 04:21:50;;;;;;;;;;;;;;;16.76;65.25;100200.53;5042009;28;1605;-58
2020/12/11 04:24:16;;;;;;;;;;;;;;;16.73;65.29;100194.59;5050893;28;1939;-58
2020/12/11 04:26:42;;;;;;;;;;;;;;;16.73;65.59;100194.59;5038019;28;1727;-58
2020/12/11 04:29:08;;;;;;;;;;;;;;;16.69;66.09;100197.56;5050420;28;1738;-58
2020/12/11 04:31:33;;;;;;;;;;;;;;;16.65;66.61;100204.16;5043869;28;1719;-59
2020/12/11 04:33:58;;;;;;;;;;;;;;;16.61;66.35;100194.72;5048460;28;1711;-59
2020/12/11 04:36:23;;;;;;;;;;;;;;;16.59;67.18;100218.03;5036911;28;1703;-60
2020/12/11 04:38:48;;;;;;;;;;;;;;;16.59;67.24;100207.34;5050453;28;1592;-60
2020/12/11 04:41:15;;;;;;;;;;;;;;;16.58;66.29;100208.31;5035024;28;1695;-60
2020/12/11 04:43:40;;;;;;;;;;;;;;;16.60;66.42;100206.38;5045649;28;1893;-58
2020/12/11 04:46:06;;;;;;;;;;;;;;;16.57;66.76;100206.63;5039472;28;1763;-59
2020/12/11 04:48:32;;;;;;;;;;;;;;;16.59;67.45;100204.69;5036287;28;1656;-58
2020/12/11 04:50:58;;;;;;;;;;;;;;;16.60;67.22;100221.53;5048944;28;1792;-60
2020/12/11 04:53:24;;;;;;;;;;;;;;;16.63;66.64;100195.44;5043618;28;1641;-60
2020/12/11 04:55:52;;;;;;;;;;;;;;;16.61;66.85;100178.69;5042251;28;1688;-60
2020/12/11 04:58:17;;;;;;;;;;;;;;;16.59;67.32;100183.34;5049665;28;1601;-60
2020/12/11 05:00:43;;;;;;;;;;;;;;;16.59;66.87;100188.66;5037371;28;1469;-60
2020/12/11 05:03:13;;;;;;;;;;;;;;;16.58;67.05;100186.97;5052315;28;1716;-58
2020/12/11 05:05:38;;;;;;;;;;;;;;;16.60;66.97;100179.66;5054424;28;1973;-60
2020/12/11 05:08:16;;;;;;;;;;;;;;;16.54;67.59;100180.22;5054128;28;860;-60
2020/12/11 05:10:41;;;;;;;;;;;;;;;16.49;68.41;100193.09;5053187;28;1763;-60
2020/12/11 05:13:16;;;;;;;;;;;;;;;16.50;68.95;100200.13;5052546;28;1704;-59
2020/12/11 05:15:41;;;;;;;;;;;;;;;16.59;68.30;100199.34;5054203;28;852;-57
2020/12/11 05:18:16;;;;;;;;;;;;;;;16.66;67.81;100187.13;5054027;28;810;-59
2020/12/11 05:20:41;;;;;;;;;;;;;;;16.63;67.82;100176.75;5044731;28;1726;-57
2020/12/11 05:23:08;;;;;;;;;;;;;;;16.64;68.45;100196.25;5037739;28;1809;-58
2020/12/11 05:25:33;;;;;;;;;;;;;;;16.61;68.25;100197.38;5042781;28;1878;-60
2020/12/11 05:27:59;;;;;;;;;;;;;;;16.55;68.89;100173.88;5042489;28;1746;-59
2020/12/11 05:30:25;;;;;;;;;;;;;;;16.52;68.30;100182.16;5046776;28;1585;-57
2020/12/11 05:32:57;;;;;;;;;;;;;;;16.52;69.20;100171.50;5048991;28;1550;-57
2020/12/11 05:35:27;;;;;;;;;;;;;;;16.53;68.57;100188.34;5046229;28;1668;-60
2020/12/11 05:37:56;;;;;;;;;;;;;;;16.46;68.61;100172.03;5043772;28;1743;-58
2020/12/11 05:40:26;;;;;;;;;;;;;;;16.49;67.79;100198.44;5047114;28;1707;-57
2020/12/11 05:43:03;;;;;;;;;;;;;;;16.45;68.13;100191.66;5055272;28;1731;-59
2020/12/11 05:45:28;;;;;;;;;;;;;;;16.44;69.04;100192.66;5050160;28;1948;-57
2020/12/11 05:47:58;;;;;;;;;;;;;;;16.44;68.69;100206.00;5043289;28;1711;-57
2020/12/11 05:50:23;;;;;;;;;;;;;;;16.39;69.32;100197.53;5045322;28;1699;-60
2020/12/11 05:52:48;;;;;;;;;;;;;;;16.37;69.35;100194.16;5044443;28;1609;-57
2020/12/11 05:55:17;;;;;;;;;;;;;;;16.39;68.11;100202.88;5041807;28;1699;-60
2020/12/11 05:57:42;;;;;;;;;;;;;;;16.40;68.72;100199.25;5052099;28;1648;-60
2020/12/11 06:00:08;;;;;;;;;;;;;;;16.40;68.71;100199.25;5045128;28;1693;-60
2020/12/11 06:02:34;;;;;;;;;;;;;;;16.38;69.30;100201.19;5047123;28;1669;-57
2020/12/11 06:05:00;;;;;;;;;;;;;;;16.38;68.64;100204.72;5049473;28;1910;-59
2020/12/11 06:07:26;;;;;;;;;;;;;;;16.41;68.88;100211.59;5039051;28;1688;-57
2020/12/11 06:09:54;;;;;;;;;;;;;;;16.41;68.64;100200.91;5045993;28;1730;-60
2020/12/11 06:12:26;;;;;;;;;;;;;;;16.43;68.00;100204.31;5047806;28;1746;-58
2020/12/11 06:15:02;;;;;;;;;;;;;;;16.41;68.92;100206.25;5043757;28;1624;-57
2020/12/11 06:17:31;;;;;;;;;;;;;;;16.36;68.80;100203.16;5050955;28;1708;-57
2020/12/11 06:19:59;;;;;;;;;;;;;;;16.39;68.14;100210.88;5040260;28;1688;-59
2020/12/11 06:22:24;;;;;;;;;;;;;;;16.36;68.72;100205.81;5047233;28;1710;-57
2020/12/11 06:24:50;;;;;;;;;;;;;;;16.36;68.99;100209.34;5044257;28;1947;-60
2020/12/11 06:27:28;;;;;;;;;;;;;;;16.36;69.17;100224.50;5048631;28;1755;-58
2020/12/11 06:29:53;;;;;;;;;;;;;;;16.34;69.32;100216.63;5046359;28;1968;-57
2020/12/11 06:32:30;;;;;;;;;;;;;;;16.37;68.31;100226.19;5040372;28;1752;-57
2020/12/11 06:35:15;;;;;;;;;;;;;;;16.33;69.15;100216.75;5048689;28;1668;-57
2020/12/11 06:37:41;;;;;;;;;;;;;;;16.33;69.39;100209.56;5052101;28;1655;-60
2020/12/11 06:40:07;;;;;;;;;;;;;;;16.30;68.77;100208.03;5051168;28;1759;-59
2020/12/11 06:42:35;;;;;;;;;;;;;;;16.30;68.37;100221.38;5043310;28;1735;-58
2020/12/11 06:45:12;;;;;;;;;;;;;;;16.31;68.27;100222.22;5045089;28;1955;-57
2020/12/11 06:47:37;;;;;;;;;;;;;;;16.46;68.29;100217.41;5053020;28;1668;-59
2020/12/11 06:50:05;;;;;;;;;;;;;;;16.47;69.40;100224.41;5045337;28;1691;-57
2020/12/11 06:52:34;;;;;;;;;;;;;;;16.40;68.89;100220.59;5047419;28;1663;-58
2020/12/11 06:55:00;;;;;;;;;;;;;;;16.37;68.61;100221.69;4344818;28;10001302;-59
2020/12/11 06:57:32;;;;;;;;;;;;;;;16.32;69.11;100223.91;4666990;28;9999741;-59
2020/12/11 06:59:57;;;;;;;;;;;;;;;16.33;68.74;100227.41;5022202;28;1816;-57
2020/12/11 07:02:24;;;;;;;;;;;;;;;16.28;70.14;100223.31;5022501;28;1642;-57
2020/12/11 07:04:50;;;;;;;;;;;;;;;16.32;68.93;100231.91;5017317;28;1969;-59
2020/12/11 07:07:15;;;;;;;;;;;;;;;16.27;68.77;100221.66;5014813;28;1586;-60
2020/12/11 07:09:41;;;;;;;;;;;;;;;16.27;68.98;100232.31;5018574;28;1423;-57
2020/12/11 07:12:07;;;;;;;;;;;;;;;16.28;69.07;100218.00;5013197;28;1626;-60
2020/12/11 07:14:32;;;;;;;;;;;;;;;16.37;69.52;100239.53;5015937;28;1657;-57
2020/12/11 07:16:58;;;;;;;;;;;;;;;16.29;70.22;100243.72;5019625;28;1828;-61
2020/12/11 07:19:23;;;;;;;;;;;;;;;16.37;71.10;100237.69;5014764;28;1503;-59
2020/12/11 07:21:49;;;;;;;;;;;;;;;16.48;69.90;100240.28;5017602;28;1568;-63
2020/12/11 07:24:14;;;;;;;;;;;;;;;16.50;70.68;100243.69;5016179;28;1955;-61
2020/12/11 07:26:39;;;;;;;;;;;;;;;16.61;70.37;100249.91;5016903;28;1622;-61
2020/12/11 07:29:06;;;;;;;;;;;;;;;16.64;69.55;100241.66;5041116;28;1367;-59
2020/12/11 07:31:41;;;;;;;;;;;;;;;16.60;69.59;100241.06;5043828;28;1480;-59
2020/12/11 07:34:12;;;;;;;;;;;;;;;16.59;70.39;100236.72;5052925;28;1456;-58
2020/12/11 07:36:38;;;;;;;;;;;;;;;16.45;68.89;100237.03;5047579;28;1452;-57
2020/12/11 07:39:17;;;;;;;;;;;;;;;16.41;70.07;100244.50;5044446;28;1524;-57
2020/12/11 07:41:44;;;;;;;;;;;;;;;16.42;69.02;100240.81;5044412;28;1535;-57
2020/12/11 07:44:10;;;;;;;;;;;;;;;16.40;68.94;100223.25;5050149;28;1959;-57
2020/12/11 07:46:36;;;;;;;;;;;;;;;16.37;69.95;100234.19;4994205;28;1253;-56
2020/12/11 07:49:02;;;;;;;;;;;;;;;16.34;69.52;100221.13;5028785;28;1136;-57
2020/12/11 07:51:27;;;;;;;;;;;;;;;16.37;69.88;100226.19;5043548;28;998;-57
2020/12/11 07:53:53;;;;;;;;;;;;;;;16.33;69.93;100238.94;5052028;28;793;-58
2020/12/11 07:56:18;;;;;;;;;;;;;;;16.30;69.38;100213.38;5039894;28;901;-57
2020/12/11 07:58:44;;;;;;;;;;;;;;;16.32;68.48;100234.59;5053486;28;766;-59
2020/12/11 08:01:09;;;;;;;;;;;;;;;16.25;69.75;100239.59;5053517;28;1034;-57
2020/12/11 08:03:34;;;;;;;;;;;;;;;16.26;68.62;100219.94;5054594;28;1963;-56
2020/12/11 08:05:59;;;;;;;;;;;;;;;16.29;69.60;100237.50;5055094;28;793;-57
2020/12/11 08:08:26;;;;;;;;;;;;;;;16.27;69.87;100237.66;5054949;28;1069;-56
2020/12/11 08:10:52;;;;;;;;;;;;;;;16.25;69.68;100236.94;5060166;28;1159;-57
2020/12/11 08:13:18;;;;;;;;;;;;;;;16.27;68.71;100245.66;5054698;28;837;-56
2020/12/11 08:15:44;;;;;;;;;;;;;;;16.23;69.11;100246.88;5054934;28;870;-57
2020/12/11 08:18:14;;;;;;;;;;;;;;;16.25;68.93;100252.94;5054420;28;1107;-57
2020/12/11 08:20:43;;;;;;;;;;;;;;;16.24;69.89;100240.56;5061364;28;1270;-57
2020/12/11 08:23:17;;;;;;;;;;;;;;;16.23;68.66;100254.88;5063619;28;1365;-58
2020/12/11 08:25:43;;;;;;;;;;;;;;;16.21;69.60;100243.47;5062068;28;1971;-57
2020/12/11 08:28:08;;;;;;;;;;;;;;;16.23;68.79;100252.22;5063929;28;1290;-57
2020/12/11 08:30:34;;;;;;;;;;;;;;;16.25;69.83;100244.94;5054740;28;1325;-56
2020/12/11 08:33:08;;;;;;;;;;;;;;;16.29;69.91;100250.84;5049264;28;1237;-57
2020/12/11 08:35:33;;;;;;;;;;;;;;;16.29;69.20;100254.38;5029356;28;11967;-56
2020/12/11 08:37:59;;;;;;;;;;;;;;;16.28;69.79;100243.84;5047597;28;870;-57
2020/12/11 08:40:28;;;;;;;;;;;;;;;16.29;69.53;100229.50;5051061;28;1089;-57
2020/12/11 08:51:36;;;;;;;;;;;;;;;16.27;69.13;100237.66;5039952;28;1159;-57
2020/12/11 08:54:04;;;;;;;;;;;;;;;16.24;68.41;100227.22;5053484;28;892;-57
2020/12/11 08:56:31;;;;;;;;;;;;;;;16.28;68.54;100217.16;5050951;28;1150;-58
2020/12/11 08:58:57;;;;;;;;;;;;;;;16.32;68.98;100223.91;5054680;28;1151;-57
2020/12/11 09:01:22;;;;;;;;;;;;;;;16.25;68.70;100204.06;5060139;28;1148;-58
2020/12/11 09:03:47;;;;;;;;;;;;;;;16.26;69.32;100213.78;5039483;28;2003;-57
2020/12/11 09:06:13;;;;;;;;;;;;;;;16.28;68.23;100226.00;5035172;28;745;-57
2020/12/11 09:08:38;;;;;;;;;;;;;;;16.31;69.38;100206.19;5034816;28;908;-58
2020/12/11 09:11:03;;;;;;;;;;;;;;;16.26;69.00;100203.94;5038116;28;1101;-57
2020/12/11 09:13:29;;;;;;;;;;;;;;;16.32;69.20;100207.06;5054405;28;1147;-57
2020/12/11 09:15:54;;;;;;;;;;;;;;;16.33;69.20;100192.72;5055072;28;848;-57
2020/12/11 09:18:20;;;;;;;;;;;;;;;16.24;69.20;100199.72;5054394;28;900;-57
2020/12/11 09:20:45;;;;;;;;;;;;;;;16.28;68.35;100201.16;5054471;28;771;-58
2020/12/11 09:23:11;;;;;;;;;;;;;;;16.22;69.59;100194.50;5054764;28;834;-56
2020/12/11 09:25:36;;;;;;;;;;;;;;;16.23;69.13;100185.50;5054400;28;1886;-56
2020/12/11 09:28:08;;;;;;;;;;;;;;;16.10;69.61;100188.41;5055007;28;1073;-57
2020/12/11 09:30:36;;;;;;;;;;;;;;;16.18;68.48;100185.06;5053916;28;1420;-57
2020/12/11 09:33:09;;;;;;;;;;;;;;;16.20;69.26;100191.13;5054281;28;889;-57
2020/12/11 09:35:34;;;;;;;;;;;;;;;16.22;69.28;100175.84;5054683;28;802;-57
2020/12/11 09:38:00;;;;;;;;;;;;;;;16.23;68.45;100182.00;5054283;28;1007;-57
2020/12/11 09:40:50;;;;;;;;;;;;;;;16.26;68.59;100187.94;5056916;28;1108;-58
2020/12/11 09:54:21;;;;;;;;;;;;;;;17.06;68.02;100164.09;5053627;28;1155;-58
2020/12/11 09:56:23;;;;;;;;;;;;;;;17.29;66.93;100154.03;5043344;28;1239;-58
2020/12/11 09:58:51;;;;;;;;;;;;;;;17.42;68.46;100154.56;5061778;28;1164;-57
2020/12/11 10:01:21;;;;;;;;;;;;;;;17.62;68.01;100141.22;5056461;28;1103;-57
2020/12/11 10:03:46;;;;;;;;;;;;;;;17.80;68.23;100139.50;5036134;28;1981;-57
2020/12/11 10:06:12;;;;;;;;;;;;;;;17.94;68.16;100162.31;5054019;28;781;-57
2020/12/11 10:08:37;;;;;;;;;;;;;;;18.14;67.95;100167.63;5053259;28;757;-57
2020/12/11 10:11:03;;;;;;;;;;;;;;;18.21;67.28;100171.44;5053548;28;1423;-57
2020/12/11 10:13:28;;;;;;;;;;;;;;;18.26;66.55;100156.63;5053536;28;837;-57
2020/12/11 10:15:54;;;;;;;;;;;;;;;18.38;66.86;100162.66;5054961;28;1195;-57
2020/12/11 10:18:19;;;;;;;;;;;;;;;18.51;66.30;100154.28;5062745;28;1203;-57
2020/12/11 10:20:44;;;;;;;;;;;;;;;18.60;66.30;100168.59;5055829;28;1124;-57
2020/12/11 10:23:09;;;;;;;;;;;;;;;18.69;65.67;100151.66;5053468;28;1182;-58
2020/12/11 10:25:38;;;;;;;;;;;;;;;18.85;65.26;100159.09;5053573;28;1890;-58
2020/12/11 10:28:03;;;;;;;;;;;;;;;19.02;65.72;100152.06;5053231;28;1396;-57
2020/12/11 10:30:28;;;;;;;;;;;;;;;19.15;65.19;100159.75;5053517;28;759;-57
2020/12/11 10:32:54;;;;;;;;;;;;;;;19.31;64.79;100169.81;5053130;28;798;-58
2020/12/11 10:35:20;;;;;;;;;;;;;;;19.09;65.61;100150.47;5053089;28;839;-58
2020/12/11 10:37:45;;;;;;;;;;;;;;;18.99;66.14;100155.06;5071947;28;1081;-57
2020/12/11 10:40:10;;;;;;;;;;;;;;;18.88;66.59;100167.69;5073225;28;876;-59
2020/12/11 10:42:36;;;;;;;;;;;;;;;18.87;65.67;100151.75;5073160;28;844;-57
2020/12/11 10:45:02;;;;;;;;;;;;;;;18.82;65.71;100156.69;5072880;28;1882;-58
2020/12/11 10:47:29;;;;;;;;;;;;;;;18.79;65.68;100156.97;5056976;28;1234;-58
2020/12/11 10:49:54;;;;;;;;;;;;;;;18.67;66.14;100141.09;5052999;28;850;-57
2020/12/11 10:52:20;;;;;;;;;;;;;;;18.66;66.34;100152.81;5051063;28;1334;-59
2020/12/11 10:54:45;;;;;;;;;;;;;;;18.66;65.34;100143.91;5044777;28;1453;-56
2020/12/11 10:57:11;;;;;;;;;;;;;;;18.66;65.06;100150.13;5041497;28;1397;-57
2020/12/11 10:59:36;;;;;;;;;;;;;;;18.63;65.37;100146.91;5035406;28;1386;-60
2020/12/11 11:02:01;;;;;;;;;;;;;;;18.54;65.34;100132.56;5050114;28;1423;-65
2020/12/11 11:04:27;;;;;;;;;;;;;;;18.55;65.30;100128.06;5045748;28;1980;-59
2020/12/11 11:07:35;;;;;;;;;;;;;;;18.61;65.60;100136.34;5042053;28;1507;-58
2020/12/11 11:12:22;;;;;;;;;;;;;;;18.49;65.64;100124.13;5034385;28;1520;-61
2020/12/11 11:25:39;;;;;;;;;;;;;;;18.24;66.82;100131.84;5051844;28;1859;-61
2020/12/11 11:28:03;;;;;;;;;;;;;;;18.19;66.95;100135.94;5050973;28;1481;-61
2020/12/11 11:30:28;;;;;;;;;;;;;;;18.13;66.84;100137.38;5051204;28;1622;-57
2020/12/11 11:32:54;;;;;;;;;;;;;;;18.11;67.05;100117.94;5048534;28;1313;-57
2020/12/11 11:35:20;;;;;;;;;;;;;;;18.14;66.57;100128.34;5048903;28;1522;-56
2020/12/11 11:37:46;;;;;;;;;;;;;;;18.16;66.04;100134.38;5049615;28;1429;-59
2020/12/11 11:40:12;;;;;;;;;;;;;;;18.13;67.31;100131.19;5051474;28;1496;-57
2020/12/11 11:42:37;;;;;;;;;;;;;;;18.14;67.33;100139.03;5034448;28;1041;-58
2020/12/11 11:45:05;;;;;;;;;;;;;;;18.12;66.60;100146.38;5021869;28;1973;-61
2020/12/11 11:47:31;;;;;;;;;;;;;;;18.16;65.85;100134.38;5051687;28;1484;-60
2020/12/11 11:54:56;;;;;;;;;;;;;;;18.38;66.38;100140.38;5052122;28;970;-56
2020/12/11 11:57:21;;;;;;;;;;;;;;;18.32;66.48;100131.09;5050932;28;1681;-61
2020/12/11 11:59:47;;;;;;;;;;;;;;;18.25;66.23;100128.16;5051123;28;1500;-56
2020/12/11 12:02:12;;;;;;;;;;;;;;;18.28;65.98;100135.91;5047812;28;1543;-61
2020/12/11 12:04:39;;;;;;;;;;;;;;;18.23;67.09;100124.78;5047560;28;1949;-56
2020/12/11 12:07:04;;;;;;;;;;;;;;;18.26;66.48;100131.69;5050551;28;1516;-60
2020/12/11 12:09:29;;;;;;;;;;;;;;;18.25;66.46;100124.66;5046224;28;1656;-60
2020/12/11 12:11:55;;;;;;;;;;;;;;;18.41;65.71;100129.38;5051206;28;1570;-61
2020/12/11 12:14:20;;;;;;;;;;;;;;;18.43;65.35;100104.16;5049940;28;1595;-61
2020/12/11 12:16:47;;;;;;;;;;;;;;;18.50;65.58;100120.44;5049326;28;1492;-56
2020/12/11 12:19:24;;;;;;;;;;;;;;;18.57;64.56;100110.00;5050055;28;1521;-56
2020/12/11 12:29:30;;;;;;;;;;;;;;;18.44;66.06;100107.66;5044300;28;1495;-62
2020/12/11 12:32:00;;;;;;;;;;;;;;;18.45;65.66;100114.72;5048229;28;1369;-56
2020/12/11 12:37:13;;;;;;;;;;;;;;;18.36;66.21;100128.97;5052332;28;1515;-55
2020/12/11 12:44:42;;;;;;;;;;;;;;;18.22;66.99;100125.81;5049809;28;1937;-55
2020/12/11 12:47:07;;;;;;;;;;;;;;;18.21;66.33;100133.97;5043190;28;1502;-55
2020/12/11 12:49:32;;;;;;;;;;;;;;;18.15;66.43;100130.03;5025656;28;1411;-60
2020/12/11 12:51:58;;;;;;;;;;;;;;;18.16;67.08;100134.38;5046935;28;1428;-62
2020/12/11 12:54:24;;;;;;;;;;;;;;;18.16;66.71;100136.22;5044772;28;1584;-61
2020/12/11 12:56:53;;;;;;;;;;;;;;;18.28;66.16;100140.41;5050840;28;1467;-61
2020/12/11 12:59:35;;;;;;;;;;;;;;;18.43;65.62;100132.75;5048827;28;1421;-55
2020/12/11 13:07:09;;;;;;;;;;;;;;;18.51;64.49;100130.19;5049134;28;1245;-56
2020/12/11 13:09:35;;;;;;;;;;;;;;;18.52;65.57;100126.50;5050610;28;1488;-61
2020/12/11 13:12:00;;;;;;;;;;;;;;;18.45;66.62;100141.50;5050608;28;1452;-61
2020/12/11 13:14:26;;;;;;;;;;;;;;;18.60;65.98;100145.38;5049583;28;1370;-61
2020/12/11 13:16:51;;;;;;;;;;;;;;;18.51;66.24;100124.81;5045730;28;1413;-54
2020/12/11 13:19:19;;;;;;;;;;;;;;;18.54;66.24;100139.75;4328364;28;10000584;-62
2020/12/11 13:27:09;;;;;;;;;;;;;;;18.40;67.49;100143.75;5046237;28;1484;-61
2020/12/11 13:29:35;;;;;;;;;;;;;;;18.35;66.87;100140.69;5047486;28;1381;-62
2020/12/11 13:32:01;;;;;;;;;;;;;;;18.29;66.99;100144.78;5044622;28;1451;-62
2020/12/11 13:34:27;;;;;;;;;;;;;;;18.24;67.02;100142.56;5047554;28;1458;-62
2020/12/11 13:36:52;;;;;;;;;;;;;;;18.23;67.14;100156.06;5049008;28;1176;-62
2020/12/11 13:39:18;;;;;;;;;;;;;;;18.23;66.80;100153.41;5030508;28;1561;-56
2020/12/11 13:41:43;;;;;;;;;;;;;;;18.20;67.31;100156.34;5045801;28;1165;-56
2020/12/11 13:44:08;;;;;;;;;;;;;;;18.16;67.33;100150.44;5044615;28;1949;-56
2020/12/11 13:46:34;;;;;;;;;;;;;;;18.14;66.91;100154.25;5047276;28;1375;-56
2020/12/11 13:48:59;;;;;;;;;;;;;;;18.13;66.49;100148.06;5043463;28;1428;-62